Time;durP1;ratioP1;P1;durP2;ratioP2;P2;SDS_P1;SDS_P2;PMS_P1;PMS_P2;Temp;Humidity;BMP_temperature;BMP_pressure;BME280_temperature;BME280_humidity;BME280_pressure;Samples;Min_cycle;Max_cycle;Signal;HPM_P1;HPM_P2
2023/05/21 00:01:28;;;;;;;1.77;0.50;;;;;;;14.03;59.66;101799.22;7360815;19;20021;-64
2023/05/21 00:03:56;;;;;;;3.15;0.50;;;;;;;14.01;59.90;101795.91;7363551;19;20421;-63
2023/05/21 00:06:24;;;;;;;5.03;0.77;;;;;;;14.04;60.18;101793.78;7362456;19;21059;-64
2023/05/21 00:08:51;;;;;;;5.28;0.70;;;;;;;13.99;60.48;101795.22;7365896;19;20021;-64
2023/05/21 00:11:19;;;;;;;3.17;0.63;;;;;;;13.98;60.86;101799.66;7362385;19;20037;-63
2023/05/21 00:13:46;;;;;;;4.00;0.82;;;;;;;13.90;61.35;101782.91;7365992;19;20877;-63
2023/05/21 00:16:14;;;;;;;1.85;0.60;;;;;;;13.86;61.57;101786.84;7360539;19;21104;-63
2023/05/21 00:18:43;;;;;;;7.65;1.15;;;;;;;13.80;62.21;101792.72;7361191;19;20018;-63
2023/05/21 00:21:11;;;;;;;5.07;0.63;;;;;;;13.80;62.32;101790.91;7362182;19;20014;-64
2023/05/21 00:23:40;;;;;;;4.32;0.73;;;;;;;13.78;62.37;101795.50;7365597;19;20037;-64
2023/05/21 00:26:07;;;;;;;6.38;0.90;;;;;;;13.72;62.36;101785.50;7361702;19;20018;-64
2023/05/21 00:28:35;;;;;;;3.60;0.60;;;;;;;13.69;62.79;101785.81;7365562;19;20051;-64
2023/05/21 00:31:02;;;;;;;1.90;0.55;;;;;;;13.65;64.11;101792.41;7362663;19;20022;-63
2023/05/21 00:33:29;;;;;;;3.47;0.60;;;;;;;13.62;63.26;101779.44;7362774;19;20090;-63
2023/05/21 00:35:59;;;;;;;3.55;0.73;;;;;;;13.56;63.81;101782.72;7362522;19;20010;-63
2023/05/21 00:38:27;;;;;;;4.90;0.80;;;;;;;13.50;64.03;101791.25;7363811;19;20015;-63
2023/05/21 00:40:55;;;;;;;4.45;0.70;;;;;;;13.43;64.33;101785.69;7364709;19;20013;-63
2023/05/21 00:43:25;;;;;;;5.38;0.80;;;;;;;13.47;64.80;101775.66;7363899;19;20017;-63
2023/05/21 00:45:55;;;;;;;5.32;1.45;;;;;;;13.44;64.79;101784.72;7361165;19;20019;-63
2023/05/21 00:48:23;;;;;;;3.65;0.80;;;;;;;13.46;64.71;101781.94;7362545;19;20518;-66
2023/05/21 00:50:50;;;;;;;6.13;0.88;;;;;;;13.46;64.91;101781.94;7362579;19;20035;-63
2023/05/21 00:53:18;;;;;;;3.42;0.63;;;;;;;13.45;65.82;101781.09;7364810;19;20025;-63
2023/05/21 00:55:47;;;;;;;7.05;0.60;;;;;;;13.49;65.22;101768.41;7358027;19;20021;-63
2023/05/21 00:58:16;;;;;;;6.35;0.95;;;;;;;13.52;65.47;101776.03;7362517;19;20034;-63
2023/05/21 01:00:44;;;;;;;5.88;0.80;;;;;;;13.46;66.09;101776.66;7359360;19;20093;-64
2023/05/21 01:03:13;;;;;;;5.47;0.90;;;;;;;13.43;66.49;101782.22;7361255;19;20019;-64
2023/05/21 01:05:43;;;;;;;4.10;1.10;;;;;;;13.36;66.86;101781.16;7359963;19;20022;-63
2023/05/21 01:08:11;;;;;;;5.78;1.25;;;;;;;13.29;67.25;101780.91;7364202;19;20585;-63
2023/05/21 01:10:39;;;;;;;4.70;0.80;;;;;;;13.25;67.52;101783.03;7362506;19;20050;-63
2023/05/21 01:13:07;;;;;;;7.65;1.13;;;;;;;13.17;68.48;101780.25;7364055;19;20022;-64
2023/05/21 01:15:37;;;;;;;7.20;1.00;;;;;;;13.09;69.15;101779.31;7361591;19;20032;-64
2023/05/21 01:18:04;;;;;;;3.75;0.70;;;;;;;13.08;69.45;101767.91;7369023;19;20443;-63
2023/05/21 01:20:32;;;;;;;5.60;1.02;;;;;;;13.10;69.50;101776.53;7361812;19;20561;-64
2023/05/21 01:23:00;;;;;;;4.90;1.10;;;;;;;13.10;69.92;101773.88;7363431;19;20022;-64
2023/05/21 01:25:27;;;;;;;5.78;1.00;;;;;;;13.12;69.87;101771.09;7361682;19;20033;-64
2023/05/21 01:27:54;;;;;;;3.80;1.00;;;;;;;13.13;69.92;101773.59;7361528;19;20015;-63
2023/05/21 01:30:23;;;;;;;7.03;1.75;;;;;;;13.17;70.06;101776.78;7361987;19;20134;-63
2023/05/21 01:32:53;;;;;;;8.18;1.35;;;;;;;13.15;70.54;101779.59;7358755;19;20020;-63
2023/05/21 01:35:25;;;;;;;5.90;1.10;;;;;;;13.13;70.53;101778.06;7360383;19;20026;-64
2023/05/21 01:38:12;;;;;;;6.40;1.17;;;;;;;13.09;70.84;101780.13;7361750;19;20018;-63
2023/05/21 01:40:50;;;;;;;4.50;1.30;;;;;;;13.07;71.01;101774.16;7359550;19;20655;-63
2023/05/21 01:43:19;;;;;;;3.85;1.05;;;;;;;13.06;71.76;101774.28;7361768;19;20014;-63
2023/05/21 01:45:52;;;;;;;6.88;1.10;;;;;;;13.01;71.88;101769.44;7356904;19;21820;-63
2023/05/21 01:48:21;;;;;;;7.20;1.20;;;;;;;12.99;72.20;101763.50;7360476;19;20066;-64
2023/05/21 01:50:50;;;;;;;6.95;1.27;;;;;;;13.00;72.49;101772.25;7360248;19;20018;-65
2023/05/21 01:53:17;;;;;;;7.53;1.30;;;;;;;12.85;73.31;101777.97;7362519;19;20900;-63
2023/05/21 01:55:45;;;;;;;10.52;1.40;;;;;;;12.87;73.77;101767.28;7361024;19;20157;-64
2023/05/21 01:58:15;;;;;;;6.65;1.92;;;;;;;12.78;74.00;101766.34;7356188;19;20025;-63
2023/05/21 02:00:44;;;;;;;7.82;1.70;;;;;;;12.60;75.34;101768.03;7356914;19;20014;-62
2023/05/21 02:03:15;;;;;;;8.88;1.95;;;;;;;12.58;75.73;101766.53;7362515;19;20014;-62
2023/05/21 02:05:43;;;;;;;10.93;1.75;;;;;;;12.57;75.68;101775.41;7360255;19;20018;-63
2023/05/21 02:08:11;;;;;;;7.18;1.75;;;;;;;12.55;76.11;101769.44;7361052;19;20030;-63
2023/05/21 02:10:39;;;;;;;4.13;1.25;;;;;;;12.53;76.80;101766.13;7361973;19;20990;-63
2023/05/21 02:13:07;;;;;;;6.85;1.65;;;;;;;12.61;76.50;101774.16;7361545;19;20023;-63
2023/05/21 02:15:34;;;;;;;10.63;1.73;;;;;;;12.61;76.33;101775.00;7359385;19;20021;-64
2023/05/21 02:18:02;;;;;;;7.95;1.80;;;;;;;12.63;76.71;101774.88;7361166;19;20018;-63
2023/05/21 02:20:30;;;;;;;10.88;1.60;;;;;;;12.63;76.66;101774.88;7360201;19;20665;-63
2023/05/21 02:22:57;;;;;;;10.60;2.55;;;;;;;12.66;76.64;101779.84;7360784;19;20002;-63
2023/05/21 02:25:26;;;;;;;3.40;1.50;;;;;;;12.62;76.65;101778.47;7362182;19;20022;-63
2023/05/21 02:27:55;;;;;;;7.55;1.80;;;;;;;12.57;77.16;101764.88;7361032;19;20085;-63
2023/05/21 02:30:22;;;;;;;7.78;1.73;;;;;;;12.60;77.66;101765.41;7357461;19;20022;-64
2023/05/21 02:32:50;;;;;;;6.93;1.50;;;;;;;12.59;77.61;101771.69;7359577;19;20690;-64
2023/05/21 02:35:17;;;;;;;7.45;1.98;;;;;;;12.58;77.69;101759.44;7359093;19;20031;-62
2023/05/21 02:37:44;;;;;;;6.93;2.08;;;;;;;12.63;77.81;101772.22;7358537;19;20462;-63
2023/05/21 02:40:12;;;;;;;6.47;1.85;;;;;;;12.66;78.10;101772.75;7358016;19;20447;-62
2023/05/21 02:42:40;;;;;;;9.77;2.00;;;;;;;12.66;77.58;101766.63;7357982;19;20015;-63
2023/05/21 02:45:09;;;;;;;9.98;2.78;;;;;;;12.63;77.61;101774.88;7359912;19;20049;-63
2023/05/21 02:47:37;;;;;;;9.55;2.58;;;;;;;12.58;78.49;101769.16;7357429;19;20029;-63
2023/05/21 02:50:06;;;;;;;10.98;2.45;;;;;;;12.53;78.73;101764.31;7359630;19;20101;-62
2023/05/21 02:52:34;;;;;;;10.50;2.65;;;;;;;12.51;79.03;101771.53;7360031;19;20030;-63
2023/05/21 02:55:01;;;;;;;8.90;2.60;;;;;;;12.52;79.08;101767.94;7361268;19;20014;-63
2023/05/21 02:57:29;;;;;;;13.48;2.63;;;;;;;12.44;79.42;101773.09;7358616;19;20010;-63
2023/05/21 02:59:56;;;;;;;9.57;2.67;;;;;;;12.43;79.74;101760.88;7359699;19;20025;-63
2023/05/21 03:02:23;;;;;;;9.52;2.58;;;;;;;12.40;79.95;101767.25;7358322;19;20163;-63
2023/05/21 03:04:50;;;;;;;8.18;2.55;;;;;;;12.35;80.11;101758.09;7359394;19;20049;-62
2023/05/21 03:07:18;;;;;;;11.20;2.55;;;;;;;12.33;80.10;101750.34;7357105;19;20022;-63
2023/05/21 03:09:46;;;;;;;11.88;3.05;;;;;;;12.35;80.60;101750.16;7359683;19;20010;-63
2023/05/21 03:12:13;;;;;;;10.93;2.38;;;;;;;12.25;80.63;101738.78;7359198;19;20041;-63
2023/05/21 03:14:42;;;;;;;14.45;3.38;;;;;;;12.24;81.32;101742.44;7359176;19;20049;-62
2023/05/21 03:17:12;;;;;;;10.50;2.40;;;;;;;12.22;81.48;101742.56;7356720;19;20034;-63
2023/05/21 03:19:40;;;;;;;9.60;3.28;;;;;;;12.15;81.72;101738.81;7357135;19;20018;-62
2023/05/21 03:22:08;;;;;;;10.77;2.47;;;;;;;12.11;82.34;101740.06;7359764;19;20597;-63
2023/05/21 03:24:37;;;;;;;9.90;3.38;;;;;;;12.12;82.68;101738.28;7360451;19;20015;-62
2023/05/21 03:27:05;;;;;;;14.07;3.25;;;;;;;12.13;83.13;101735.50;7357299;19;20876;-62
2023/05/21 03:29:33;;;;;;;12.40;2.65;;;;;;;12.14;83.10;101737.13;7359159;19;20006;-63
2023/05/21 03:32:01;;;;;;;11.82;2.80;;;;;;;12.21;82.62;101740.06;7355257;19;20015;-62
2023/05/21 03:34:29;;;;;;;11.70;2.78;;;;;;;12.20;82.48;101752.41;7358594;19;20039;-63
2023/05/21 03:36:56;;;;;;;14.32;2.97;;;;;;;12.20;82.71;101749.78;7356147;19;20031;-63
2023/05/21 03:39:23;;;;;;;9.50;3.08;;;;;;;12.23;82.65;101753.94;7356896;19;20014;-63
2023/05/21 03:41:50;;;;;;;12.20;3.03;;;;;;;12.12;82.60;101747.00;7366647;19;20665;-62
2023/05/21 03:44:17;;;;;;;12.75;3.08;;;;;;;12.11;83.43;101747.16;7361299;19;20026;-62
2023/05/21 03:46:44;;;;;;;10.10;2.45;;;;;;;12.12;83.84;101752.28;7363352;19;20018;-63
2023/05/21 03:49:13;;;;;;;11.90;2.90;;;;;;;12.12;83.43;101749.66;7366128;19;20039;-63
2023/05/21 03:51:40;;;;;;;10.20;3.20;;;;;;;12.15;83.24;101744.09;7365289;19;20014;-63
2023/05/21 03:54:07;;;;;;;9.25;3.22;;;;;;;12.22;82.80;101747.00;7362509;19;20053;-63
2023/05/21 03:56:34;;;;;;;8.93;2.70;;;;;;;12.24;82.99;101755.63;7365934;19;20039;-63
2023/05/21 03:59:01;;;;;;;10.10;3.42;;;;;;;12.26;82.90;101753.66;7368807;19;20031;-63
2023/05/21 04:01:29;;;;;;;10.13;3.65;;;;;;;12.26;82.77;101751.84;7363525;19;20057;-63
2023/05/21 04:03:56;;;;;;;10.10;2.95;;;;;;;12.29;82.59;101756.03;7363234;19;20026;-63
2023/05/21 04:06:24;;;;;;;9.48;2.78;;;;;;;12.30;83.38;101747.97;7364110;19;20023;-66
2023/05/21 04:08:51;;;;;;;8.70;2.83;;;;;;;12.34;82.85;101756.44;7366776;19;20759;-63
2023/05/21 04:11:18;;;;;;;6.10;2.33;;;;;;;12.35;82.36;101758.09;7364256;19;20026;-62
2023/05/21 04:13:46;;;;;;;11.48;3.15;;;;;;;12.36;81.90;101757.94;7364387;19;20031;-63
2023/05/21 04:16:17;;;;;;;13.20;3.25;;;;;;;12.36;82.53;101762.41;7362686;19;20093;-65
2023/05/21 04:18:45;;;;;;;15.27;3.25;;;;;;;12.34;82.29;101757.25;7365886;19;20031;-62
2023/05/21 04:21:13;;;;;;;11.65;4.05;;;;;;;12.19;82.80;101771.03;7364056;19;20022;-63
2023/05/21 04:23:40;;;;;;;8.00;3.08;;;;;;;12.16;83.04;101766.03;7367759;19;20010;-63
2023/05/21 04:26:07;;;;;;;9.25;3.25;;;;;;;12.14;83.60;101774.06;7365877;19;20033;-63
2023/05/21 04:28:35;;;;;;;8.60;2.65;;;;;;;12.12;83.29;101769.91;7365491;19;20015;-63
2023/05/21 04:31:02;;;;;;;14.18;3.35;;;;;;;12.07;83.65;101770.34;7362168;19;20031;-63
2023/05/21 04:33:29;;;;;;;12.15;3.00;;;;;;;12.05;83.98;101769.63;7365580;19;20483;-63
2023/05/21 04:35:56;;;;;;;8.35;2.85;;;;;;;12.02;84.20;101769.94;7360673;19;20086;-63
2023/05/21 04:38:24;;;;;;;14.27;2.90;;;;;;;12.03;84.22;101760.22;7361362;19;20018;-63
2023/05/21 04:40:51;;;;;;;13.38;3.30;;;;;;;12.04;83.82;101757.41;7364447;19;20019;-63
2023/05/21 04:43:24;;;;;;;10.25;3.90;;;;;;;12.05;83.90;101764.38;7365640;19;20364;-62
2023/05/21 04:45:53;;;;;;;10.27;3.00;;;;;;;12.06;84.11;101767.84;7361066;19;20039;-63
2023/05/21 04:48:25;;;;;;;11.27;3.45;;;;;;;12.04;84.15;101764.53;7362331;19;20010;-63
2023/05/21 04:50:53;;;;;;;13.38;3.38;;;;;;;12.07;83.94;101766.88;7361401;19;20034;-63
2023/05/21 04:53:20;;;;;;;12.75;3.60;;;;;;;12.08;84.33;101766.75;7360303;19;20014;-62
2023/05/21 04:55:48;;;;;;;7.88;2.83;;;;;;;12.15;84.24;101775.75;7363743;19;20011;-63
2023/05/21 04:58:16;;;;;;;8.65;2.72;;;;;;;12.15;83.87;101773.09;7362972;19;20984;-62
2023/05/21 05:00:45;;;;;;;7.80;2.58;;;;;;;12.22;83.70;101768.13;7361157;19;20038;-62
2023/05/21 05:03:13;;;;;;;13.85;3.67;;;;;;;12.23;83.43;101767.97;7363657;19;20007;-63
2023/05/21 05:05:40;;;;;;;11.70;3.53;;;;;;;12.24;83.96;101772.25;7360420;19;21731;-63
2023/05/21 05:08:07;;;;;;;8.88;3.33;;;;;;;12.27;84.19;101772.00;7362969;19;20014;-64
2023/05/21 05:10:35;;;;;;;7.13;2.75;;;;;;;12.29;83.61;101766.59;7363851;19;20042;-63
2023/05/21 05:13:02;;;;;;;14.13;3.75;;;;;;;12.30;83.39;101760.31;7361744;19;20053;-63
2023/05/21 05:15:29;;;;;;;10.23;2.75;;;;;;;12.32;83.81;101766.31;7363073;19;20021;-63
2023/05/21 05:17:57;;;;;;;15.85;4.88;;;;;;;12.36;83.75;101767.69;7361182;19;20408;-63
2023/05/21 05:20:24;;;;;;;8.35;2.88;;;;;;;12.39;83.02;101760.31;7360564;19;20019;-63
2023/05/21 05:22:51;;;;;;;9.68;3.05;;;;;;;12.45;82.64;101761.53;7363443;19;20014;-63
2023/05/21 05:25:18;;;;;;;10.52;3.67;;;;;;;12.46;82.60;101762.38;7361335;19;20026;-63
2023/05/21 05:27:46;;;;;;;10.07;3.10;;;;;;;12.52;82.20;101759.19;7361699;19;20781;-63
2023/05/21 05:30:13;;;;;;;10.85;3.45;;;;;;;12.54;82.17;101758.06;7361648;19;20022;-63
2023/05/21 05:32:40;;;;;;;10.40;3.30;;;;;;;12.58;82.61;101753.34;7362279;19;20019;-63
2023/05/21 05:35:08;;;;;;;11.30;3.08;;;;;;;12.64;82.15;101752.78;7362856;19;20029;-63
2023/05/21 05:37:35;;;;;;;12.68;3.78;;;;;;;12.69;81.79;101759.28;7360625;19;20641;-62
2023/05/21 05:40:04;;;;;;;9.93;3.28;;;;;;;12.67;81.45;101755.09;7362761;19;21083;-63
2023/05/21 05:42:31;;;;;;;11.32;2.53;;;;;;;12.71;81.44;101756.47;7361601;19;20960;-63
2023/05/21 05:44:58;;;;;;;12.90;3.03;;;;;;;12.76;80.83;101747.16;7361007;19;20018;-62
2023/05/21 05:47:25;;;;;;;8.93;2.70;;;;;;;12.81;80.29;101749.34;7357070;19;21007;-63
2023/05/21 05:49:53;;;;;;;11.60;2.47;;;;;;;12.80;80.89;101747.69;7361481;19;21056;-63
2023/05/21 05:52:20;;;;;;;9.90;2.88;;;;;;;12.85;80.24;101748.09;7360861;19;20044;-63
2023/05/21 05:54:47;;;;;;;9.70;2.75;;;;;;;12.86;79.94;101740.03;7362815;19;20039;-63
2023/05/21 05:57:14;;;;;;;9.95;3.30;;;;;;;12.87;80.39;101735.56;7360013;19;20018;-64
2023/05/21 05:59:41;;;;;;;8.80;3.65;;;;;;;12.89;80.56;101746.84;7361782;19;20022;-63
2023/05/21 06:02:09;;;;;;;8.60;3.08;;;;;;;12.96;79.43;101747.91;7359819;19;20026;-63
2023/05/21 06:04:36;;;;;;;12.50;3.22;;;;;;;12.98;80.40;101740.69;7362676;19;20033;-62
2023/05/21 06:07:03;;;;;;;9.55;3.58;;;;;;;13.11;79.18;101745.63;7357619;19;20019;-63
2023/05/21 06:09:30;;;;;;;5.38;2.55;;;;;;;13.48;77.56;101748.22;7362624;19;20041;-63
2023/05/21 06:11:58;;;;;;;11.85;3.08;;;;;;;13.89;76.59;101750.31;7385511;19;20953;-64
2023/05/21 06:14:26;;;;;;;8.75;3.10;;;;;;;14.43;74.89;101756.38;7381288;19;20022;-64
2023/05/21 06:16:53;;;;;;;11.20;2.88;;;;;;;15.16;70.38;101751.50;7359111;19;20089;-63
2023/05/21 06:19:20;;;;;;;9.80;2.47;;;;;;;15.62;68.93;101755.50;7360913;19;20062;-63
2023/05/21 06:21:47;;;;;;;7.85;2.90;;;;;;;16.03;65.79;101767.00;7362236;19;20053;-64
2023/05/21 06:24:15;;;;;;;7.18;2.95;;;;;;;15.73;66.25;101758.69;7361272;19;20014;-63
2023/05/21 06:26:42;;;;;;;11.45;2.90;;;;;;;15.82;66.15;101756.84;7362703;19;20003;-63
2023/05/21 06:29:09;;;;;;;10.63;2.65;;;;;;;16.08;65.67;101757.56;7359742;19;20101;-63
2023/05/21 06:31:37;;;;;;;10.15;3.28;;;;;;;16.05;65.51;101754.41;7360250;19;20018;-63
2023/05/21 06:34:04;;;;;;;9.73;2.47;;;;;;;16.10;65.23;101752.09;7361969;19;20015;-64
2023/05/21 06:36:31;;;;;;;6.78;2.85;;;;;;;16.38;63.71;101745.41;7359972;19;20011;-63
2023/05/21 06:38:58;;;;;;;9.93;2.95;;;;;;;16.57;63.97;101741.56;7358812;19;20019;-63
2023/05/21 06:41:27;;;;;;;7.78;2.78;;;;;;;16.47;63.50;101740.91;7358529;19;20090;-63
2023/05/21 06:43:54;;;;;;;8.20;2.78;;;;;;;16.17;64.78;101745.09;7358894;19;20041;-63
2023/05/21 06:46:21;;;;;;;7.47;2.45;;;;;;;15.88;64.87;101742.94;7358963;19;21060;-64
2023/05/21 06:48:49;;;;;;;8.02;2.85;;;;;;;15.61;65.22;101748.53;7360437;19;20700;-64
2023/05/21 06:51:16;;;;;;;6.22;2.97;;;;;;;15.35;67.06;101745.94;7360412;19;20635;-63
2023/05/21 06:53:43;;;;;;;9.07;2.95;;;;;;;15.18;67.71;101746.88;7361695;19;20410;-64
2023/05/21 06:56:11;;;;;;;12.15;2.88;;;;;;;15.05;68.12;101741.19;7360882;19;20011;-62
2023/05/21 06:58:38;;;;;;;6.93;3.28;;;;;;;14.94;68.97;101747.59;7360844;19;20361;-63
2023/05/21 07:01:06;;;;;;;9.07;3.00;;;;;;;14.84;69.32;101744.22;7359059;19;20053;-64
2023/05/21 07:03:35;;;;;;;7.03;3.33;;;;;;;14.81;69.83;101744.56;7357978;19;20612;-64
2023/05/21 07:06:02;;;;;;;9.88;3.60;;;;;;;14.86;69.61;101743.09;7356713;19;20019;-64
2023/05/21 07:08:30;;;;;;;9.73;3.03;;;;;;;14.90;69.06;101744.44;7358782;19;20050;-63
2023/05/21 07:10:57;;;;;;;9.80;3.13;;;;;;;14.84;68.71;101737.13;7358970;19;20018;-63
2023/05/21 07:13:24;;;;;;;10.00;2.70;;;;;;;14.84;68.90;101739.75;7358100;19;20070;-63
2023/05/21 07:15:51;;;;;;;10.95;2.97;;;;;;;14.83;68.41;101743.41;7362516;19;20017;-64
2023/05/21 07:18:23;;;;;;;8.32;2.80;;;;;;;14.85;68.81;101736.13;7365678;19;20014;-64
2023/05/21 07:20:50;;;;;;;11.20;3.13;;;;;;;14.90;68.33;101736.47;7364599;19;20026;-63
2023/05/21 07:23:18;;;;;;;7.22;2.25;;;;;;;14.93;68.10;101738.00;7367378;19;20025;-64
2023/05/21 07:25:45;;;;;;;8.75;2.45;;;;;;;15.00;68.25;101739.00;7363363;19;20031;-64
2023/05/21 07:28:13;;;;;;;6.60;2.42;;;;;;;15.12;65.72;101743.06;7367535;19;20018;-63
2023/05/21 07:30:41;;;;;;;4.68;2.42;;;;;;;15.21;66.09;101738.59;7363112;19;20055;-63
2023/05/21 07:33:08;;;;;;;6.53;2.35;;;;;;;15.53;64.98;101740.56;7367489;19;20010;-63
2023/05/21 07:35:35;;;;;;;5.78;2.20;;;;;;;16.00;62.24;101744.25;7364356;19;20379;-63
2023/05/21 07:38:03;;;;;;;4.63;1.65;;;;;;;16.94;59.62;101751.63;7365023;19;20015;-64
2023/05/21 07:40:31;;;;;;;6.88;1.58;;;;;;;17.82;56.86;101760.19;7362654;19;20047;-63
2023/05/21 07:42:58;;;;;;;5.95;1.50;;;;;;;18.27;56.57;101757.50;7367692;19;20010;-63
2023/05/21 07:45:25;;;;;;;5.80;1.35;;;;;;;18.90;53.12;101763.38;7363210;19;20029;-63
2023/05/21 07:47:53;;;;;;;8.75;1.77;;;;;;;19.09;52.43;101762.84;7363672;19;20029;-63
2023/05/21 07:50:21;;;;;;;4.50;1.60;;;;;;;19.23;51.06;101762.81;7362267;19;20608;-62
2023/05/21 07:52:48;;;;;;;5.93;1.20;;;;;;;19.15;51.45;101760.25;7366937;19;20472;-63
2023/05/21 07:55:18;;;;;;;5.07;1.67;;;;;;;18.63;52.44;101764.88;7363185;19;20363;-64
2023/05/21 07:57:45;;;;;;;5.07;1.48;;;;;;;18.38;52.99;101756.25;7365361;19;20018;-63
2023/05/21 08:00:14;;;;;;;5.35;1.52;;;;;;;18.05;54.31;101752.19;7363777;19;20766;-63
2023/05/21 08:02:41;;;;;;;6.65;1.70;;;;;;;18.08;54.71;101757.97;7362515;19;20026;-64
2023/05/21 08:05:09;;;;;;;6.35;1.35;;;;;;;17.97;55.80;101758.41;7365292;19;20021;-63
2023/05/21 08:07:37;;;;;;;4.05;1.15;;;;;;;17.84;56.11;101756.34;7364914;19;20010;-64
2023/05/21 08:10:05;;;;;;;4.72;1.30;;;;;;;17.93;55.72;101759.75;7365974;19;20023;-63
2023/05/21 08:12:32;;;;;;;5.88;1.00;;;;;;;18.22;54.67;101753.72;7365328;19;20025;-65
2023/05/21 08:15:00;;;;;;;5.60;1.27;;;;;;;18.67;53.94;101750.16;7362332;19;20281;-63
2023/05/21 08:17:27;;;;;;;4.38;1.30;;;;;;;18.34;54.17;101744.25;7363456;19;20018;-63
2023/05/21 08:19:54;;;;;;;5.13;0.90;;;;;;;18.18;55.29;101753.25;7363873;19;20040;-63
2023/05/21 08:22:21;;;;;;;5.43;0.98;;;;;;;18.34;55.85;101754.94;7364893;19;21799;-64
2023/05/21 08:24:48;;;;;;;2.95;1.08;;;;;;;18.49;54.63;101746.97;7366005;19;21787;-63
2023/05/21 08:27:16;;;;;;;3.58;1.02;;;;;;;18.59;54.86;101742.25;7359898;19;20524;-63
2023/05/21 08:29:43;;;;;;;4.70;0.90;;;;;;;18.26;54.90;101742.53;7364795;19;20474;-64
2023/05/21 08:32:10;;;;;;;7.65;0.95;;;;;;;18.05;55.33;101747.69;7360761;19;20010;-63
2023/05/21 08:34:37;;;;;;;4.05;0.70;;;;;;;18.00;56.44;101751.91;7362305;19;20097;-63
2023/05/21 08:37:05;;;;;;;4.03;0.90;;;;;;;17.94;56.41;101753.44;7363131;19;20051;-63
2023/05/21 08:39:32;;;;;;;5.18;0.90;;;;;;;17.81;56.57;101754.03;7362851;19;20055;-63
2023/05/21 08:42:13;;;;;;;3.67;0.80;;;;;;;17.82;56.01;101745.06;7364276;19;20060;-63
2023/05/21 08:44:58;;;;;;;4.22;0.70;;;;;;;17.66;56.58;101745.16;7363667;19;20100;-63
2023/05/21 08:47:29;;;;;;;3.42;0.70;;;;;;;17.53;57.60;101747.53;7361198;19;20014;-62
2023/05/21 08:49:59;;;;;;;2.25;0.73;;;;;;;17.54;57.08;101742.03;7363671;19;20026;-64
2023/05/21 08:52:26;;;;;;;1.98;0.70;;;;;;;17.69;57.65;101738.63;7362585;19;20090;-63
2023/05/21 08:54:55;;;;;;;4.22;0.88;;;;;;;17.78;57.72;101742.88;7364709;19;21663;-63
2023/05/21 08:57:25;;;;;;;3.80;0.70;;;;;;;18.13;56.36;101746.81;7362897;19;20419;-62
2023/05/21 08:59:53;;;;;;;2.63;0.80;;;;;;;18.32;55.31;101744.47;7360412;19;20391;-64
2023/05/21 09:02:20;;;;;;;3.45;0.90;;;;;;;18.18;56.59;101741.78;7361955;19;20035;-64
2023/05/21 09:04:49;;;;;;;3.42;0.82;;;;;;;17.88;56.22;101749.66;7363174;19;20045;-63
2023/05/21 09:07:17;;;;;;;3.63;0.80;;;;;;;17.89;56.68;101745.97;7361934;19;20015;-64
2023/05/21 09:09:56;;;;;;;3.85;0.88;;;;;;;18.20;55.76;101745.06;7363269;19;20069;-67
2023/05/21 09:12:24;;;;;;;2.33;0.55;;;;;;;18.62;54.08;101753.38;7361847;19;20019;-62
2023/05/21 09:14:52;;;;;;;2.38;0.70;;;;;;;18.62;53.85;101736.53;7361123;19;20022;-63
2023/05/21 09:17:19;;;;;;;5.32;0.70;;;;;;;18.45;54.35;101749.16;7360902;19;20023;-63
2023/05/21 09:20:11;;;;;;;2.88;0.70;;;;;;;18.33;55.00;101738.13;7360111;19;20014;-63
2023/05/21 09:22:41;;;;;;;3.70;0.82;;;;;;;18.25;55.08;101746.19;7362241;19;20042;-64
2023/05/21 09:25:10;;;;;;;4.80;0.73;;;;;;;18.09;55.91;101737.50;7362900;19;20025;-63
2023/05/21 09:27:38;;;;;;;2.30;0.75;;;;;;;18.06;56.29;101744.03;7346008;19;20019;-65
2023/05/21 09:30:12;;;;;;;2.95;0.60;;;;;;;18.02;56.23;101742.72;7360636;19;20014;-64
2023/05/21 09:32:40;;;;;;;5.93;0.80;;;;;;;18.02;55.39;101755.22;7358065;19;20019;-63
2023/05/21 09:35:10;;;;;;;3.30;0.80;;;;;;;17.87;55.69;101745.34;7359785;19;20738;-64
2023/05/21 09:37:43;;;;;;;1.63;0.60;;;;;;;17.85;56.16;101743.84;7343730;19;20053;-64
2023/05/21 09:40:14;;;;;;;1.80;0.50;;;;;;;17.85;56.40;101743.84;7359451;19;20015;-63
2023/05/21 09:42:45;;;;;;;7.10;0.70;;;;;;;17.93;56.04;101741.94;7360687;19;20050;-63
2023/05/21 09:45:17;;;;;;;3.90;0.70;;;;;;;17.90;56.05;101739.66;7356971;19;20015;-64
2023/05/21 09:47:45;;;;;;;;;;;;;;;17.88;55.33;101739.00;7352022;19;20023;-64
2023/05/21 09:50:16;;;;;;;4.05;0.80;;;;;;;17.80;55.60;101740.91;7359692;19;20017;-64
2023/05/21 09:52:44;;;;;;;3.13;0.88;;;;;;;17.75;56.10;101732.63;7359707;19;20022;-64
2023/05/21 09:55:12;;;;;;;2.88;0.70;;;;;;;17.82;56.11;101722.91;7360542;19;20014;-66
2023/05/21 09:57:42;;;;;;;2.97;0.70;;;;;;;17.88;55.76;101730.16;7359120;19;20030;-63
2023/05/21 10:00:17;;;;;;;3.35;0.70;;;;;;;18.00;55.85;101738.56;7356900;19;20006;-64
2023/05/21 10:02:46;;;;;;;3.67;0.75;;;;;;;18.13;55.53;101730.81;7358843;19;20018;-63
2023/05/21 10:05:15;;;;;;;4.00;1.00;;;;;;;18.28;55.07;101737.84;7359233;19;20538;-63
2023/05/21 10:07:49;;;;;;;5.35;1.00;;;;;;;18.29;55.32;101725.31;7357129;19;20026;-64
2023/05/21 10:10:20;;;;;;;6.88;0.80;;;;;;;18.27;54.82;101738.03;7358646;19;20025;-62
2023/05/21 10:12:53;;;;;;;5.18;0.88;;;;;;;18.25;54.95;101732.03;7355013;19;20021;-63
2023/05/21 10:15:24;;;;;;;4.63;1.05;;;;;;;18.36;55.31;101731.59;7359753;19;20055;-63
2023/05/21 10:17:52;;;;;;;6.63;1.10;;;;;;;18.43;54.99;101711.22;7357753;19;20011;-63
2023/05/21 10:20:21;;;;;;;2.70;0.88;;;;;;;18.51;54.49;101716.44;7359196;19;20014;-63
2023/05/21 10:22:49;;;;;;;3.63;0.70;;;;;;;18.55;54.33;101716.94;7359069;19;20746;-64
2023/05/21 10:25:17;;;;;;;2.85;0.80;;;;;;;18.58;53.93;101716.59;7364174;19;20015;-63
2023/05/21 10:27:45;;;;;;;3.08;0.85;;;;;;;18.44;53.90;101725.38;7361846;19;20014;-64
2023/05/21 10:30:14;;;;;;;3.08;0.73;;;;;;;18.26;54.47;101715.88;7358439;19;20628;-64
2023/05/21 10:32:41;;;;;;;3.88;1.08;;;;;;;18.28;54.12;101721.88;7360577;19;20434;-63
2023/05/21 10:35:10;;;;;;;4.18;0.90;;;;;;;18.25;53.77;101724.03;7359882;19;20011;-64
2023/05/21 10:37:39;;;;;;;3.08;1.10;;;;;;;18.27;53.70;101711.38;7361540;19;20451;-63
2023/05/21 10:40:07;;;;;;;4.20;0.85;;;;;;;18.29;53.99;101701.34;7359994;19;20444;-63
2023/05/21 10:42:34;;;;;;;4.55;1.00;;;;;;;18.34;54.62;101707.78;7359534;19;20007;-63
2023/05/21 10:45:05;;;;;;;4.35;1.35;;;;;;;18.35;55.12;101713.94;7358604;19;20018;-64
2023/05/21 10:47:45;;;;;;;5.07;1.10;;;;;;;18.41;55.14;101710.56;7355056;19;20015;-65
2023/05/21 10:50:15;;;;;;;5.40;1.17;;;;;;;18.42;55.41;101711.41;7365652;19;20014;-64
2023/05/21 10:52:51;;;;;;;5.25;1.15;;;;;;;18.41;55.43;101707.06;7368372;19;20102;-64
2023/05/21 10:55:35;;;;;;;3.88;1.20;;;;;;;18.39;56.14;101707.25;7362991;19;20054;-64
2023/05/21 10:58:23;;;;;;;4.07;1.58;;;;;;;18.44;56.12;101706.72;7368006;19;20022;-62
2023/05/21 11:00:56;;;;;;;6.45;0.90;;;;;;;18.48;55.95;101700.84;7362620;19;20041;-65
2023/05/21 11:03:24;;;;;;;4.10;1.00;;;;;;;18.52;56.10;101688.78;7369769;19;20052;-64
2023/05/21 11:05:54;;;;;;;3.75;1.20;;;;;;;18.44;55.70;101694.19;7361329;19;20019;-62
2023/05/21 11:08:37;;;;;;;4.68;1.20;;;;;;;18.42;56.02;101696.22;7366248;19;20046;-63
2023/05/21 11:11:05;;;;;;;7.35;1.63;;;;;;;18.18;56.01;101699.97;7363742;19;20010;-63
2023/05/21 11:13:47;;;;;;;4.45;1.00;;;;;;;18.22;56.59;101679.94;7368207;19;20833;-62
2023/05/21 11:16:16;;;;;;;7.95;1.40;;;;;;;18.18;57.03;101691.97;7364564;19;20018;-65
2023/05/21 11:18:45;;;;;;;9.00;1.00;;;;;;;18.23;55.38;101688.78;7367822;19;20014;-63
2023/05/21 11:21:15;;;;;;;5.93;1.20;;;;;;;18.25;55.08;101684.91;7366939;19;20019;-63
2023/05/21 11:23:53;;;;;;;5.55;1.30;;;;;;;18.36;53.38;101680.97;7365655;19;20291;-63
2023/05/21 11:26:24;;;;;;;4.80;1.45;;;;;;;18.43;52.77;101683.75;7366064;19;20014;-63
2023/05/21 11:29:05;;;;;;;5.55;1.10;;;;;;;18.52;52.72;101672.78;7365988;19;20014;-63
2023/05/21 11:31:37;;;;;;;4.80;0.70;;;;;;;18.66;52.67;101677.31;7359394;19;20757;-64